Time;durP1;ratioP1;P1;durP2;ratioP2;P2;SDS_P1;SDS_P2;PMS_P1;PMS_P2;Temp;Humidity;BMP_temperature;BMP_pressure;BME280_temperature;BME280_humidity;BME280_pressure;Samples;Min_cycle;Max_cycle;Signal;HPM_P1;HPM_P2
2022/12/02 00:01:16;;;;;;;3.97;1.92;;;;;;;6.76;100.00;100537.09;5069867;28;20024;-28
2022/12/02 00:03:42;;;;;;;4.80;1.90;;;;;;;6.80;100.00;100543.66;5069560;28;20033;-28
2022/12/02 00:06:14;;;;;;;4.35;2.03;;;;;;;6.74;100.00;100549.69;5069705;28;20032;-30
2022/12/02 00:08:40;;;;;;;4.18;1.90;;;;;;;6.73;100.00;100540.09;5088015;28;20091;-28
2022/12/02 00:11:24;;;;;;;4.75;2.20;;;;;;;6.83;100.00;100548.59;5090097;28;20162;-32
2022/12/02 00:13:50;;;;;;;5.00;2.38;;;;;;;6.92;100.00;100551.16;5089715;28;20028;-28
2022/12/02 00:16:21;;;;;;;5.72;2.70;;;;;;;6.88;100.00;100548.03;5089958;28;20047;-28
2022/12/02 00:18:47;;;;;;;6.50;2.70;;;;;;;6.77;100.00;100554.63;5071386;28;20415;-32
2022/12/02 00:21:13;;;;;;;5.88;2.67;;;;;;;6.76;100.00;100541.53;5071165;28;20020;-28
2022/12/02 00:23:38;;;;;;;6.43;2.90;;;;;;;6.69;100.00;100551.25;5089688;28;20317;-27
2022/12/02 00:26:03;;;;;;;6.15;3.03;;;;;;;6.66;100.00;100547.13;5088162;28;20809;-29
2022/12/02 00:28:29;;;;;;;6.55;3.20;;;;;;;6.81;100.00;100550.59;5071326;28;20024;-29
2022/12/02 00:30:54;;;;;;;5.95;2.97;;;;;;;6.74;100.00;100555.00;5089379;28;20028;-28
2022/12/02 00:33:20;;;;;;;6.43;2.63;;;;;;;6.58;100.00;100539.25;5089675;28;20037;-31
2022/12/02 00:35:45;;;;;;;6.40;3.25;;;;;;;6.68;100.00;100555.72;5070653;28;20034;-28
2022/12/02 00:38:11;;;;;;;6.22;2.88;;;;;;;6.62;100.00;100551.16;5089050;28;20866;-28
2022/12/02 00:40:36;;;;;;;7.28;3.25;;;;;;;6.53;100.00;100536.31;5089385;28;20042;-32
2022/12/02 00:48:31;;;;;;;6.70;3.20;;;;;;;6.77;100.00;100546.66;5089599;28;20038;-31
2022/12/02 00:50:56;;;;;;;7.15;3.22;;;;;;;6.74;100.00;100544.41;5070928;28;20411;-29
2022/12/02 00:53:22;;;;;;;7.32;3.47;;;;;;;6.67;100.00;100546.09;5089166;28;20611;-30
2022/12/02 00:55:47;;;;;;;6.40;3.40;;;;;;;6.76;100.00;100542.38;5070561;28;20028;-28
2022/12/02 00:58:13;;;;;;;9.57;4.15;;;;;;;6.65;100.00;100524.25;5088715;28;20024;-30
2022/12/02 01:00:38;;;;;;;9.00;3.67;;;;;;;6.92;100.00;100537.88;5070454;28;20081;-28
2022/12/02 01:03:03;;;;;;;9.75;4.57;;;;;;;6.87;100.00;100532.31;5088736;28;20031;-33
2022/12/02 01:05:30;;;;;;;9.35;4.30;;;;;;;6.83;100.00;100534.53;5088524;28;20032;-30
2022/12/02 01:07:55;;;;;;;8.30;3.75;;;;;;;6.63;100.00;100526.28;5088761;28;20052;-29
2022/12/02 01:10:20;;;;;;;9.35;4.45;;;;;;;6.67;100.00;100538.16;5088412;28;20028;-36
2022/12/02 01:12:46;;;;;;;9.98;4.55;;;;;;;6.73;100.00;100532.13;5088652;28;20027;-29
2022/12/02 01:15:11;;;;;;;9.20;4.50;;;;;;;6.76;100.00;100545.03;5088545;28;20035;-29
2022/12/02 01:17:37;;;;;;;9.38;4.47;;;;;;;6.90;100.00;100531.94;5088476;28;20798;-32
2022/12/02 01:20:02;;;;;;;9.38;4.32;;;;;;;6.74;100.00;100539.09;5088472;28;20464;-32
2022/12/02 01:22:28;;;;;;;11.88;5.68;;;;;;;6.68;100.00;100550.41;5070128;28;20028;-29
2022/12/02 01:24:53;;;;;;;11.52;5.07;;;;;;;6.62;100.00;100545.84;5088518;28;20061;-28
2022/12/02 01:27:19;;;;;;;13.88;5.70;;;;;;;6.70;100.00;100540.47;5088263;28;20050;-28
2022/12/02 01:29:44;;;;;;;14.43;5.50;;;;;;;6.64;100.00;100533.22;5088364;28;20073;-28
2022/12/02 01:32:09;;;;;;;15.07;5.82;;;;;;;6.67;100.00;100535.50;5087875;28;20043;-33
2022/12/02 01:34:35;;;;;;;13.82;6.90;;;;;;;6.71;100.00;100539.44;5088265;28;20028;-29
2022/12/02 01:37:00;;;;;;;14.93;6.40;;;;;;;6.77;100.00;100528.09;5088284;28;20032;-28
2022/12/02 01:39:26;;;;;;;12.07;5.57;;;;;;;6.66;100.00;100510.03;5088182;28;20035;-29
2022/12/02 01:41:51;;;;;;;15.20;7.30;;;;;;;6.83;100.00;100532.69;5069891;28;20032;-28
2022/12/02 01:44:17;;;;;;;15.10;6.72;;;;;;;6.73;100.00;100531.31;5087757;28;20031;-28
2022/12/02 01:46:42;;;;;;;14.25;6.20;;;;;;;6.61;100.00;100501.78;5087911;28;20038;-28
2022/12/02 01:49:08;;;;;;;12.95;5.25;;;;;;;6.73;100.00;100526.00;5087631;28;20031;-32
2022/12/02 01:51:34;;;;;;;12.25;5.38;;;;;;;6.76;100.00;100526.47;5087974;28;20032;-32
2022/12/02 01:53:59;;;;;;;13.23;5.63;;;;;;;6.86;100.00;100525.38;5088130;28;20039;-28
2022/12/02 01:56:26;;;;;;;10.25;5.30;;;;;;;6.79;100.00;100527.94;5087704;28;20408;-30
2022/12/02 01:58:52;;;;;;;10.68;4.68;;;;;;;6.80;100.00;100511.84;5069541;28;20040;-31
2022/12/02 02:01:25;;;;;;;10.90;5.28;;;;;;;6.81;100.00;100529.38;5069204;28;20032;-28
2022/12/02 02:03:51;;;;;;;11.60;4.90;;;;;;;6.77;100.00;100528.09;5069537;28;20077;-28
2022/12/02 02:06:16;;;;;;;13.15;5.65;;;;;;;6.72;100.00;100527.84;5068843;28;20051;-29
2022/12/02 02:08:42;;;;;;;9.48;4.20;;;;;;;6.68;100.00;100513.31;5087746;28;20044;-30
2022/12/02 02:11:07;;;;;;;12.82;5.72;;;;;;;6.69;100.00;100533.50;5087550;28;20078;-29
2022/12/02 02:13:32;;;;;;;11.80;5.10;;;;;;;6.72;100.00;100530.50;5087306;28;20036;-32
2022/12/02 02:15:58;;;;;;;12.60;5.90;;;;;;;6.71;100.00;100507.63;5069097;28;20081;-30
2022/12/02 02:18:23;;;;;;;10.43;4.80;;;;;;;6.83;100.00;100516.78;5087749;28;20058;-28
2022/12/02 02:20:49;;;;;;;12.88;5.28;;;;;;;6.81;100.00;100508.19;5069347;28;20028;-33
2022/12/02 02:23:23;;;;;;;10.85;4.88;;;;;;;6.88;100.00;100518.88;5085864;28;20078;-28
2022/12/02 02:25:52;;;;;;;11.32;5.45;;;;;;;6.58;100.00;100502.16;5087249;28;20497;-31
2022/12/02 02:28:18;;;;;;;12.40;5.43;;;;;;;6.51;100.00;100523.25;5087035;28;20032;-28
2022/12/02 02:30:43;;;;;;;13.00;6.15;;;;;;;6.54;100.00;100527.34;5087315;28;20031;-29
2022/12/02 02:33:12;;;;;;;12.18;4.78;;;;;;;6.62;100.00;100519.34;5068972;28;20024;-31
2022/12/02 02:35:38;;;;;;;;;;;;;;;6.64;100.00;100523.44;5088122;28;20107;-28
2022/12/02 02:38:07;;;;;;;15.18;5.97;;;;;;;6.70;100.00;100536.97;5086830;28;19930;-28
2022/12/02 02:40:33;;;;;;;16.20;6.57;;;;;;;6.86;100.00;100522.72;5087288;28;20515;-33
2022/12/02 02:43:01;;;;;;;14.18;4.97;;;;;;;6.91;100.00;100521.16;5086934;28;20040;-28
2022/12/02 02:45:32;;;;;;;14.02;5.70;;;;;;;6.67;100.00;100505.53;5087138;28;20042;-28
2022/12/02 02:47:58;;;;;;;14.23;6.38;;;;;;;6.75;100.00;100524.00;5086979;28;20043;-31
2022/12/02 02:50:25;;;;;;;16.95;5.97;;;;;;;6.65;100.00;100518.97;5086879;28;20555;-29
2022/12/02 02:52:51;;;;;;;12.43;5.95;;;;;;;6.71;100.00;100502.34;5086908;28;20020;-28
2022/12/02 02:55:20;;;;;;;14.57;6.35;;;;;;;6.87;100.00;100521.72;5086548;28;20062;-28
2022/12/02 02:57:46;;;;;;;13.77;5.75;;;;;;;6.69;100.00;100514.94;5087124;28;20024;-29
2022/12/02 03:00:12;;;;;;;15.50;6.05;;;;;;;6.79;100.00;100522.63;5087363;28;20036;-28
2022/12/02 03:02:38;;;;;;;14.05;6.32;;;;;;;6.71;100.00;100512.13;5091294;28;20020;-32
2022/12/02 03:05:05;;;;;;;14.18;6.68;;;;;;;6.77;100.00;100522.81;5072973;28;20043;-30
2022/12/02 03:07:31;;;;;;;16.92;6.60;;;;;;;6.61;100.00;100534.41;5072486;28;20512;-28
2022/12/02 03:09:57;;;;;;;17.08;6.78;;;;;;;6.74;100.00;100517.88;5091052;28;20063;-31
2022/12/02 03:12:23;;;;;;;14.85;6.07;;;;;;;6.65;100.00;100524.25;5091169;28;20036;-32
2022/12/02 03:14:49;;;;;;;12.95;6.07;;;;;;;6.62;100.00;100529.94;5091270;28;20081;-29
2022/12/02 03:17:15;;;;;;;17.13;6.78;;;;;;;6.72;100.00;100529.66;5090753;28;20095;-28
2022/12/02 03:19:41;;;;;;;15.73;6.78;;;;;;;6.78;100.00;100513.03;5090843;28;20511;-32
2022/12/02 03:22:08;;;;;;;15.32;6.88;;;;;;;6.88;100.00;100533.97;5090415;28;20047;-29
2022/12/02 03:24:34;;;;;;;14.07;6.30;;;;;;;6.68;100.00;100531.88;5090611;28;20727;-29
2022/12/02 03:27:00;;;;;;;14.98;7.03;;;;;;;6.67;100.00;100524.09;5072743;28;20024;-28
2022/12/02 03:29:28;;;;;;;17.23;7.28;;;;;;;6.71;100.00;100518.22;5090985;28;20093;-29
2022/12/02 03:31:57;;;;;;;15.98;6.70;;;;;;;6.77;100.00;100528.09;5090601;28;20127;-31
2022/12/02 03:34:22;;;;;;;14.55;6.82;;;;;;;6.76;100.00;100531.78;5072361;28;20036;-28
2022/12/02 03:36:48;;;;;;;17.02;7.35;;;;;;;6.68;100.00;100534.53;5090750;28;20499;-28
2022/12/02 03:39:14;;;;;;;20.48;8.43;;;;;;;6.66;100.00;100541.81;5072047;28;20036;-27
2022/12/02 03:41:39;;;;;;;20.27;8.40;;;;;;;6.61;100.00;100521.16;5090911;28;20020;-27
2022/12/02 03:44:05;;;;;;;21.45;7.95;;;;;;;6.71;100.00;100528.84;5090324;28;20020;-28
2022/12/02 03:46:31;;;;;;;23.38;9.95;;;;;;;6.73;100.00;100510.94;5072488;28;20802;-32
2022/12/02 03:48:58;;;;;;;17.02;8.23;;;;;;;6.46;100.00;100514.19;5072273;28;20085;-35
2022/12/02 03:51:25;;;;;;;16.45;7.32;;;;;;;6.62;100.00;100535.25;5090370;28;20020;-33
2022/12/02 03:53:51;;;;;;;20.10;9.07;;;;;;;6.47;100.00;100542.34;5071575;28;20039;-30
2022/12/02 03:56:17;;;;;;;19.85;8.65;;;;;;;6.60;100.00;100542.56;5090246;28;20063;-31
2022/12/02 03:58:48;;;;;;;19.13;8.30;;;;;;;6.65;100.00;100540.16;5090443;28;20079;-28
2022/12/02 04:01:15;;;;;;;18.13;8.77;;;;;;;6.62;100.00;100546.66;5071977;28;20016;-27
2022/12/02 04:03:41;;;;;;;25.48;12.27;;;;;;;6.64;100.00;100539.34;5090370;28;20028;-30
2022/12/02 04:06:06;;;;;;;28.33;13.73;;;;;;;6.62;100.00;100545.84;5089581;28;20028;-30
2022/12/02 04:08:32;;;;;;;22.15;12.32;;;;;;;6.81;100.00;100561.19;5090476;28;20114;-28
2022/12/02 04:10:57;;;;;;;23.38;11.73;;;;;;;6.72;100.00;100564.09;5089667;28;20111;-28
2022/12/02 04:13:23;;;;;;;24.58;13.15;;;;;;;6.41;100.00;100557.94;5090261;28;20054;-31
2022/12/02 04:15:48;;;;;;;25.75;13.38;;;;;;;6.51;100.00;100564.81;5071649;28;20024;-28
2022/12/02 04:18:14;;;;;;;21.05;10.93;;;;;;;6.46;100.00;100567.16;5090177;28;20148;-29
2022/12/02 04:20:39;;;;;;;20.00;9.95;;;;;;;6.35;100.00;100550.69;5071600;28;20028;-28
2022/12/02 04:23:05;;;;;;;22.65;9.60;;;;;;;6.34;100.00;100564.97;5090116;28;20036;-31
2022/12/02 04:25:30;;;;;;;19.90;9.85;;;;;;;6.39;100.00;100572.38;5090094;28;20024;-31
2022/12/02 04:27:56;;;;;;;18.98;9.98;;;;;;;6.48;100.00;100570.47;5089871;28;20040;-34
2022/12/02 04:30:21;;;;;;;24.05;11.38;;;;;;;6.28;100.00;100547.13;5090136;28;20023;-28
2022/12/02 04:32:47;;;;;;;22.38;9.80;;;;;;;6.23;100.00;100566.22;5089688;28;20028;-29
2022/12/02 04:35:12;;;;;;;22.58;9.30;;;;;;;6.28;100.00;100564.88;5089723;28;20035;-28
2022/12/02 04:37:37;;;;;;;20.63;9.63;;;;;;;6.11;100.00;100564.16;5089578;28;20032;-28
2022/12/02 04:40:04;;;;;;;22.90;11.63;;;;;;;6.33;100.00;100581.84;5089565;28;20028;-30
2022/12/02 04:42:30;;;;;;;21.95;10.95;;;;;;;6.22;100.00;100558.44;5089695;28;20123;-30
2022/12/02 04:44:55;;;;;;;22.02;10.68;;;;;;;6.44;100.00;100589.38;5089721;28;20024;-27
2022/12/02 04:47:20;;;;;;;20.85;10.38;;;;;;;6.44;100.00;100581.44;5089682;28;20032;-31
2022/12/02 04:49:46;;;;;;;24.58;11.75;;;;;;;6.42;100.00;100558.78;5071131;28;20567;-32
2022/12/02 04:52:11;;;;;;;22.02;10.15;;;;;;;6.60;100.00;100603.50;5089220;28;20806;-28
2022/12/02 04:54:37;;;;;;;20.65;9.63;;;;;;;6.53;100.00;100605.22;5089739;28;20126;-31
2022/12/02 04:57:02;;;;;;;21.27;10.57;;;;;;;6.34;100.00;100610.00;5071359;28;20028;-30
2022/12/02 04:59:27;;;;;;;21.70;9.93;;;;;;;6.25;100.00;100608.41;5089417;28;20412;-34
2022/12/02 05:01:53;;;;;;;20.38;9.75;;;;;;;6.30;100.00;100611.34;5089211;28;20103;-29
2022/12/02 05:04:18;;;;;;;20.00;9.77;;;;;;;6.36;100.00;100594.75;5088897;28;20032;-30
2022/12/02 05:06:44;;;;;;;19.38;10.00;;;;;;;6.44;100.00;100599.16;5088633;28;20024;-28
2022/12/02 05:09:09;;;;;;;20.17;9.95;;;;;;;6.56;100.00;100605.69;5072843;28;20033;-28
2022/12/02 05:11:34;;;;;;;23.00;11.60;;;;;;;6.69;100.00;100612.19;5068916;28;20020;-31
2022/12/02 05:14:00;;;;;;;20.10;11.00;;;;;;;6.77;100.00;100618.25;5068966;28;20032;-28
2022/12/02 05:16:25;;;;;;;20.33;9.65;;;;;;;6.71;100.00;100616.31;5068691;28;20103;-28
2022/12/02 05:18:51;;;;;;;22.60;11.02;;;;;;;6.70;100.00;100627.94;5051149;28;20037;-27
2022/12/02 05:21:16;;;;;;;21.95;10.30;;;;;;;6.70;100.00;100601.41;5066981;28;20033;-32
2022/12/02 05:23:42;;;;;;;24.30;11.70;;;;;;;6.80;100.00;100612.59;5050025;28;20035;-29
2022/12/02 05:26:07;;;;;;;22.17;10.35;;;;;;;6.91;100.00;100623.75;5050320;28;20029;-29
2022/12/02 05:28:32;;;;;;;22.90;10.45;;;;;;;6.92;100.00;100622.72;5068548;28;20120;-28
2022/12/02 05:30:58;;;;;;;21.98;11.65;;;;;;;6.86;100.00;100634.06;5068495;28;20029;-31
2022/12/02 05:33:23;;;;;;;23.80;10.90;;;;;;;6.90;100.00;100638.00;5050172;28;20559;-29
2022/12/02 05:35:49;;;;;;;24.75;11.10;;;;;;;6.88;100.00;100640.00;5050279;28;20028;-30
2022/12/02 05:38:14;;;;;;;25.67;11.27;;;;;;;6.75;100.00;100614.94;5068240;28;20024;-28
2022/12/02 05:40:40;;;;;;;27.42;11.80;;;;;;;6.94;100.00;100640.09;5068725;28;20050;-32
2022/12/02 05:43:25;;;;;;;23.92;11.00;;;;;;;6.68;100.00;100619.34;5068115;28;20082;-29
2022/12/02 05:45:52;;;;;;;23.02;10.07;;;;;;;6.72;100.00;100627.72;5068179;28;20023;-28
2022/12/02 05:48:18;;;;;;;24.33;11.77;;;;;;;6.81;100.00;100643.38;5067682;28;20059;-29
2022/12/02 05:50:45;;;;;;;23.63;10.68;;;;;;;6.93;100.00;100645.59;5068401;28;20040;-30
2022/12/02 05:53:27;;;;;;;30.38;14.70;;;;;;;6.82;100.00;100633.59;5068426;28;20048;-28
2022/12/02 05:55:55;;;;;;;31.92;16.42;;;;;;;6.96;100.00;100647.88;5050026;28;20047;-28
2022/12/02 05:58:21;;;;;;;;;;;;;;;6.88;100.00;100653.25;5050053;28;20033;-28
2022/12/02 06:00:53;;;;;;;26.30;13.40;;;;;;;7.04;100.00;100642.50;5067622;28;19916;-29
2022/12/02 06:03:19;;;;;;;30.27;15.02;;;;;;;6.97;100.00;100645.06;5067983;28;20066;-28
2022/12/02 06:05:46;;;;;;;37.13;19.17;;;;;;;7.07;100.00;100655.41;5067495;28;20411;-28
2022/12/02 06:08:16;;;;;;;31.42;16.40;;;;;;;7.00;100.00;100646.53;5067129;28;20516;-27
2022/12/02 06:10:48;;;;;;;26.95;15.43;;;;;;;7.03;100.00;100636.38;5067234;28;20849;-29
2022/12/02 06:13:18;;;;;;;23.88;12.07;;;;;;;7.11;100.00;100656.69;5049436;28;20735;-32
2022/12/02 06:15:46;;;;;;;24.92;13.30;;;;;;;6.90;100.00;100638.00;5049667;28;20051;-29
2022/12/02 06:18:23;;;;;;;30.05;14.15;;;;;;;7.07;100.00;100649.25;5049200;28;20032;-29
2022/12/02 06:21:12;;;;;;;26.65;15.25;;;;;;;7.13;100.00;100660.00;5049611;28;20049;-28
2022/12/02 06:23:44;;;;;;;26.48;14.65;;;;;;;7.18;100.00;100662.91;5065792;28;20206;-30
2022/12/02 06:26:14;;;;;;;24.10;11.15;;;;;;;7.13;100.00;100664.44;5067123;28;20028;-30
2022/12/02 06:28:43;;;;;;;18.55;10.82;;;;;;;7.20;100.00;100655.59;5067641;28;20032;-34
2022/12/02 06:31:32;;;;;;;21.15;10.30;;;;;;;7.34;100.00;100663.75;5067320;28;20024;-34
2022/12/02 06:33:59;;;;;;;24.15;10.52;;;;;;;7.22;100.00;100666.84;5048434;28;20028;-30
2022/12/02 06:36:29;;;;;;;23.95;11.23;;;;;;;7.25;100.00;100652.38;5067303;28;20040;-32
2022/12/02 06:39:17;;;;;;;22.40;11.40;;;;;;;7.45;100.00;100665.94;5067422;28;20025;-30
2022/12/02 06:41:43;;;;;;;;;;;;;;;7.40;100.00;100668.31;5049793;28;20031;-30
2022/12/02 06:47:19;;;;;;;25.45;11.07;;;;;;;7.38;100.00;100665.03;5067155;28;20039;-32
2022/12/02 06:49:44;;;;;;;21.38;11.85;;;;;;;7.18;100.00;100631.06;5048692;28;20040;-28
2022/12/02 06:52:21;;;;;;;23.08;12.23;;;;;;;7.38;100.00;100647.28;5066738;28;20020;-34
2022/12/02 06:54:46;;;;;;;23.25;11.63;;;;;;;7.45;100.00;100665.94;5048914;28;20051;-29
2022/12/02 06:57:17;;;;;;;24.40;12.93;;;;;;;7.35;100.00;100654.78;5049129;28;20483;-30
2022/12/02 06:59:47;;;;;;;24.55;11.60;;;;;;;7.46;100.00;100670.25;5067012;28;20029;-30
2022/12/02 07:02:26;;;;;;;26.42;12.85;;;;;;;7.48;100.00;100670.88;5048551;28;20499;-32
2022/12/02 07:04:51;;;;;;;22.02;12.48;;;;;;;7.31;100.00;100650.84;5049107;28;20086;-28
2022/12/02 07:07:28;;;;;;;24.08;12.10;;;;;;;7.30;100.00;100660.63;5066724;28;20209;-28
2022/12/02 07:10:05;;;;;;;22.83;11.95;;;;;;;7.51;100.00;100678.47;5048965;28;20036;-28
2022/12/02 07:12:43;;;;;;;24.00;11.68;;;;;;;7.57;100.00;100685.69;5048660;28;20020;-29
2022/12/02 07:15:08;;;;;;;22.52;11.55;;;;;;;7.56;100.00;100686.72;5066904;28;20039;-29
2022/12/02 07:17:42;;;;;;;33.50;16.70;;;;;;;7.53;100.00;100687.06;5067109;28;20028;-31
2022/12/02 07:20:08;;;;;;;20.75;11.18;;;;;;;7.69;100.00;100695.88;5066541;28;20063;-28
2022/12/02 07:22:41;;;;;;;25.67;13.90;;;;;;;7.55;100.00;100670.97;5048870;28;20544;-29
2022/12/02 07:25:07;;;;;;;22.55;12.27;;;;;;;7.59;100.00;100699.59;5066991;28;20369;-27
2022/12/02 07:27:35;;;;;;;24.33;12.95;;;;;;;7.65;100.00;100701.53;5067110;28;20127;-27
2022/12/02 07:30:01;;;;;;;22.63;12.68;;;;;;;7.57;100.00;100704.28;5066388;28;20120;-32
2022/12/02 07:32:27;;;;;;;23.08;12.68;;;;;;;7.53;100.00;100687.06;5048288;28;20601;-30
2022/12/02 07:34:52;;;;;;;21.92;11.77;;;;;;;7.59;100.00;100710.22;5066670;28;20121;-28
2022/12/02 07:37:18;;;;;;;24.88;13.25;;;;;;;7.58;100.00;100697.97;5066516;28;20412;-30
2022/12/02 07:39:43;;;;;;;21.48;12.10;;;;;;;7.78;100.00;100705.38;5066385;28;20032;-31
2022/12/02 07:42:09;;;;;;;22.05;12.65;;;;;;;7.88;100.00;100700.59;5066410;28;20036;-28
2022/12/02 07:44:34;;;;;;;20.52;11.68;;;;;;;7.87;100.00;100693.66;5048398;28;20093;-30
2022/12/02 07:47:00;;;;;;;21.17;11.43;;;;;;;7.97;100.00;100683.56;5068396;28;20032;-30
2022/12/02 07:49:26;;;;;;;18.27;10.18;;;;;;;8.05;100.00;100702.03;5069976;28;20741;-27
2022/12/02 07:51:52;;;;;;;22.73;11.65;;;;;;;8.12;100.00;100693.31;5070353;28;20062;-28
2022/12/02 07:54:17;;;;;;;20.13;11.45;;;;;;;8.02;100.00;100698.91;5051835;28;20032;-29
2022/12/02 07:56:43;;;;;;;20.73;10.95;;;;;;;8.08;100.00;100686.72;5070157;28;20400;-29
2022/12/02 07:59:08;;;;;;;20.65;11.82;;;;;;;8.00;100.00;100709.72;5052246;28;20032;-28
2022/12/02 08:01:34;;;;;;;21.00;10.77;;;;;;;8.10;100.00;100708.63;5069763;28;20139;-29
2022/12/02 08:03:59;;;;;;;19.70;10.57;;;;;;;8.30;100.00;100708.84;5070144;28;20044;-29
2022/12/02 08:06:25;;;;;;;18.02;9.90;;;;;;;8.27;100.00;100720.66;5069838;28;20035;-30
2022/12/02 08:08:50;;;;;;;22.33;12.30;;;;;;;8.27;100.00;100720.66;5070138;28;20083;-29
2022/12/02 08:11:16;;;;;;;18.77;10.57;;;;;;;8.10;100.00;100713.94;5070027;28;20032;-32
2022/12/02 08:13:41;;;;;;;22.77;12.55;;;;;;;8.09;100.00;100701.66;5069821;28;20089;-28
2022/12/02 08:16:07;;;;;;;21.52;11.77;;;;;;;8.09;100.00;100701.66;5069544;28;20036;-33
2022/12/02 08:18:33;;;;;;;24.42;12.90;;;;;;;8.33;100.00;100722.56;5069521;28;20056;-31
2022/12/02 08:20:58;;;;;;;33.28;16.58;;;;;;;8.27;100.00;100720.66;5069848;28;20040;-29
2022/12/02 08:23:24;;;;;;;31.85;16.02;;;;;;;8.40;100.00;100715.50;5051877;28;20037;-29
2022/12/02 08:25:49;;;;;;;33.35;16.63;;;;;;;8.38;100.00;100711.41;5051513;28;20454;-28
2022/12/02 08:28:15;;;;;;;25.35;14.73;;;;;;;8.29;100.00;100694.72;5069264;28;20024;-29
2022/12/02 08:30:40;;;;;;;18.95;11.95;;;;;;;8.29;100.00;100696.56;5069493;28;20060;-29
2022/12/02 08:33:06;;;;;;;18.63;10.75;;;;;;;8.48;100.00;100716.41;5069806;28;20043;-31
2022/12/02 08:35:31;;;;;;;19.95;11.90;;;;;;;8.66;100.00;100719.44;5069480;28;20025;-28
2022/12/02 08:37:57;;;;;;;18.23;10.35;;;;;;;8.46;100.00;100711.31;5051181;28;20064;-29
2022/12/02 08:40:22;;;;;;;18.23;10.45;;;;;;;8.52;100.00;100704.38;5069214;28;20029;-31
2022/12/02 08:42:48;;;;;;;18.52;11.50;;;;;;;8.65;99.03;100696.56;5051309;28;20412;-29
2022/12/02 08:45:13;;;;;;;17.90;11.38;;;;;;;8.76;99.38;100696.00;5068987;28;20470;-29
2022/12/02 08:47:39;;;;;;;17.55;10.30;;;;;;;8.79;99.11;100719.59;5068951;28;20028;-32
2022/12/02 08:50:05;;;;;;;19.55;11.68;;;;;;;9.01;97.78;100701.78;5068653;28;20024;-30
2022/12/02 08:52:31;;;;;;;17.48;10.32;;;;;;;9.02;97.92;100715.88;5067720;28;20544;-28
2022/12/02 08:54:57;;;;;;;17.75;10.30;;;;;;;9.20;95.99;100720.75;5050949;28;20119;-29
2022/12/02 08:57:24;;;;;;;17.67;11.27;;;;;;;9.13;97.20;100710.03;5068102;28;20032;-28
2022/12/02 08:59:49;;;;;;;18.30;10.82;;;;;;;9.47;95.51;100710.28;5050351;28;20051;-28
2022/12/02 09:02:15;;;;;;;17.38;10.85;;;;;;;9.52;95.45;100714.00;5068723;28;20056;-30
2022/12/02 09:04:40;;;;;;;18.60;11.38;;;;;;;9.71;95.19;100717.78;5068830;28;20036;-28
2022/12/02 09:07:05;;;;;;;17.55;11.15;;;;;;;9.44;95.14;100716.81;5068678;28;20427;-29
2022/12/02 09:09:31;;;;;;;23.92;17.08;;;;;;;9.61;96.28;100717.31;5068613;28;20052;-28
2022/12/02 09:11:56;;;;;;;18.27;11.10;;;;;;;9.77;94.05;100703.66;5068406;28;20086;-38
2022/12/02 09:14:22;;;;;;;15.95;10.27;;;;;;;9.40;94.98;100707.56;5068492;28;20027;-32
2022/12/02 09:16:47;;;;;;;17.70;10.98;;;;;;;9.61;95.41;100714.66;5068505;28;20037;-31
2022/12/02 09:19:13;;;;;;;18.10;11.02;;;;;;;9.76;94.15;100709.19;5068538;28;20555;-31
2022/12/02 09:21:38;;;;;;;18.20;10.82;;;;;;;9.87;94.71;100716.63;5068548;28;20033;-27
2022/12/02 09:24:04;;;;;;;14.20;9.57;;;;;;;9.78;94.67;100717.81;5050042;28;20028;-27
2022/12/02 09:26:30;;;;;;;19.42;13.02;;;;;;;9.57;95.17;100716.06;5068238;28;20036;-31
2022/12/02 09:28:55;;;;;;;18.25;11.40;;;;;;;9.57;93.08;100714.22;5067950;28;20031;-31
2022/12/02 09:31:21;;;;;;;16.10;10.95;;;;;;;9.29;95.49;100694.78;5067922;28;20036;-29
2022/12/02 09:33:46;;;;;;;15.02;9.90;;;;;;;9.30;95.62;100723.06;5050089;28;20785;-33
2022/12/02 09:36:11;;;;;;;15.88;10.07;;;;;;;9.24;96.01;100717.50;5068009;28;20082;-28
2022/12/02 09:38:37;;;;;;;16.83;9.98;;;;;;;9.09;96.28;100714.09;5068169;28;20039;-30
2022/12/02 09:41:03;;;;;;;15.10;11.15;;;;;;;8.93;98.71;100727.66;5049906;28;20044;-28
2022/12/02 09:43:29;;;;;;;15.23;9.63;;;;;;;8.67;97.40;100710.47;5067916;28;20093;-30
2022/12/02 09:45:56;;;;;;;17.42;10.85;;;;;;;8.84;99.22;100722.47;5067565;28;20047;-28
2022/12/02 09:48:22;;;;;;;21.17;12.07;;;;;;;8.95;99.60;100722.97;5068081;28;20059;-28
2022/12/02 09:50:48;;;;;;;22.33;12.15;;;;;;;8.98;99.79;100728.75;5067708;28;20064;-28
2022/12/02 09:53:17;;;;;;;22.92;13.50;;;;;;;9.03;98.52;100704.22;5068227;28;20067;-29
2022/12/02 09:55:43;;;;;;;22.48;14.35;;;;;;;9.07;98.00;100716.13;5067639;28;20032;-29
2022/12/02 09:58:18;;;;;;;24.98;15.02;;;;;;;9.24;97.76;100706.84;5049271;28;20040;-30
2022/12/02 10:00:44;;;;;;;25.65;14.52;;;;;;;9.47;97.44;100705.75;5067728;28;20063;-30
2022/12/02 10:03:14;;;;;;;22.40;14.43;;;;;;;9.47;94.87;100708.41;5067866;28;20115;-35
2022/12/02 10:05:40;;;;;;;19.63;11.25;;;;;;;9.40;94.34;100699.59;5049499;28;20486;-31
2022/12/02 10:08:12;;;;;;;20.48;12.13;;;;;;;9.57;96.16;100703.56;5066912;28;20056;-31
2022/12/02 10:10:41;;;;;;;18.27;11.85;;;;;;;9.44;96.75;100701.66;5048971;28;20039;-30
2022/12/02 10:13:09;;;;;;;;;;;;;;;9.52;96.04;100703.34;5050223;28;20044;-28
2022/12/02 10:15:35;;;;;;;33.95;17.70;;;;;;;9.38;95.30;100683.00;5049671;28;19965;-28
2022/12/02 10:18:14;;;;;;;39.25;23.23;;;;;;;9.56;95.39;100682.44;5049102;28;20036;-28
2022/12/02 10:20:39;;;;;;;84.85;42.65;;;;;;;9.76;96.19;100694.03;5049454;28;20121;-28
2022/12/02 10:23:09;;;;;;;20.08;12.15;;;;;;;9.79;94.57;100708.81;5049280;28;20377;-31
2022/12/02 10:25:35;;;;;;;21.95;13.18;;;;;;;9.77;95.18;100705.53;5067475;28;20028;-30
2022/12/02 10:28:01;;;;;;;24.42;14.23;;;;;;;9.78;94.61;100707.97;5049004;28;20024;-29
2022/12/02 10:30:27;;;;;;;21.60;12.90;;;;;;;9.51;97.50;100691.03;5065682;28;20036;-30
2022/12/02 10:33:03;;;;;;;20.38;12.75;;;;;;;9.50;96.67;100705.38;5048960;28;20048;-29
2022/12/02 10:35:46;;;;;;;20.92;13.10;;;;;;;9.72;95.26;100692.78;5048677;28;20039;-31
2022/12/02 10:38:40;;;;;;;21.67;14.63;;;;;;;9.68;94.51;100702.19;5048725;28;20040;-34
2022/12/02 10:41:15;;;;;;;21.10;12.82;;;;;;;9.82;94.17;100697.75;5054631;28;20055;-35
2022/12/02 10:43:43;;;;;;;21.52;13.13;;;;;;;9.71;93.69;100690.31;5081382;28;20104;-31
2022/12/02 10:46:15;;;;;;;22.42;12.43;;;;;;;9.71;94.10;100700.97;5068437;28;20055;-33
2022/12/02 10:48:41;;;;;;;22.35;12.98;;;;;;;9.62;95.60;100695.81;5087340;28;20107;-33
2022/12/02 10:51:13;;;;;;;20.95;12.70;;;;;;;9.58;96.41;100707.88;5087150;28;20039;-30
2022/12/02 10:53:38;;;;;;;21.88;13.35;;;;;;;9.70;94.61;100696.66;5068941;28;20020;-30
2022/12/02 10:56:04;;;;;;;20.50;13.07;;;;;;;9.65;94.58;100671.44;5086816;28;20039;-28
2022/12/02 10:58:29;;;;;;;21.92;14.23;;;;;;;9.97;91.81;100690.44;5086880;28;20032;-29
2022/12/02 11:00:56;;;;;;;21.77;13.05;;;;;;;9.92;91.81;100676.88;5087127;28;21022;-29
2022/12/02 11:03:23;;;;;;;24.00;15.10;;;;;;;10.04;93.83;100687.78;5086903;28;20511;-30
2022/12/02 11:05:49;;;;;;;22.38;15.00;;;;;;;10.14;93.70;100695.41;5068759;28;20159;-37
2022/12/02 11:08:15;;;;;;;21.67;13.43;;;;;;;10.15;92.18;100691.72;5067976;28;20075;-32
2022/12/02 11:10:43;;;;;;;24.65;15.00;;;;;;;10.04;94.77;100675.28;5086984;28;20032;-29
2022/12/02 11:13:12;;;;;;;37.10;27.05;;;;;;;10.30;94.74;100687.06;5068472;28;20028;-29
2022/12/02 11:15:44;;;;;;;20.92;13.48;;;;;;;10.25;94.64;100694.81;5086749;28;20024;-31
2022/12/02 11:18:29;;;;;;;19.73;12.70;;;;;;;10.29;93.30;100688.06;5086576;28;20031;-29
2022/12/02 11:21:26;;;;;;;22.15;13.13;;;;;;;10.61;89.58;100688.34;5027838;28;20044;-29
2022/12/02 11:24:22;;;;;;;19.92;12.30;;;;;;;10.71;89.26;100680.78;5090733;28;20043;-29
2022/12/02 11:27:03;;;;;;;22.25;14.18;;;;;;;10.81;90.17;100683.84;5072524;28;20397;-28